CSL9 weather

Baie-Comeau (Manic 1) Airport
Baie-Comeau, Quebec, Canada

Public forecast

Using degrees Celsius for public forecast. Weather courtesy of forecast.io.

METAR (pilot weather report)

Closest report is Baie Comeau Airport, 6.9 nm (12.9 km) ESE. Retrieved 2019/05/24 06:00 UTC (17 minutes ago):

CYBC 240600Z AUTO 07009KT 9SM FEW090 09/M00 A2985 RMK SLP110

TAF (pilot weather forecast)

Closest forecast is Baie Comeau Airport, 6.9 nm (12.9 km) ESE. Retrieved 2019/05/24 02:00 UTC (4 hours ago):

TAF CYBC 240138Z 2402/2414 07010KT P6SM BKN070 OVC120 FM241100 10008KT P6SM BKN030 TEMPO 2411/2414 P6SM -SHRA RMK FCST BASED ON AUTO OBS. NXT FCST BY 240800Z